Time;durP1;ratioP1;P1;durP2;ratioP2;P2;SDS_P1;SDS_P2;PMS_P1;PMS_P2;Temp;Humidity;BMP_temperature;BMP_pressure;BME280_temperature;BME280_humidity;BME280_pressure;Samples;Min_cycle;Max_cycle;Signal;HPM_P1;HPM_P2
2022/08/30 00:02:43;;;;;;;9.57;7.05;;;;;;;26.12;51.93;95116.88;4917378;28;20109;-62
2022/08/30 00:05:09;;;;;;;9.23;7.18;;;;;;;26.14;51.98;95114.34;4920001;28;20047;-61
2022/08/30 00:07:34;;;;;;;8.43;6.95;;;;;;;26.03;51.86;95097.41;4918021;28;20115;-62
2022/08/30 00:10:00;;;;;;;9.25;7.50;;;;;;;26.10;52.22;95119.41;4985719;28;20418;-61
2022/08/30 00:12:26;;;;;;;8.15;7.28;;;;;;;26.09;51.97;95112.44;4916344;28;20064;-61
2022/08/30 00:14:51;;;;;;;9.27;7.10;;;;;;;25.97;51.93;95086.53;4919738;28;20528;-61
2022/08/30 00:17:18;;;;;;;10.43;7.32;;;;;;;26.08;52.49;95110.97;4982659;28;20056;-62
2022/08/30 00:19:44;;;;;;;9.40;7.20;;;;;;;26.10;52.08;95113.94;4917802;28;20268;-61
2022/08/30 00:22:09;;;;;;;10.10;7.82;;;;;;;25.33;52.08;95004.31;4975694;28;20068;-62
2022/08/30 00:24:35;;;;;;;10.65;7.60;;;;;;;25.46;51.82;95015.31;4979281;28;20110;-61
2022/08/30 00:27:00;;;;;;;7.95;6.68;;;;;;;26.13;51.83;95112.88;4915834;28;20407;-61
2022/08/30 00:29:26;;;;;;;8.63;7.35;;;;;;;25.91;51.98;95080.41;4919555;28;20043;-63
2022/08/30 00:31:51;;;;;;;10.18;7.30;;;;;;;26.01;52.12;95095.19;4916334;28;20530;-62
2022/08/30 00:34:17;;;;;;;10.07;7.22;;;;;;;25.75;52.20;95063.56;4912342;28;20107;-62
2022/08/30 00:36:45;;;;;;;7.88;7.07;;;;;;;26.09;52.06;95101.50;4912666;28;20526;-62
2022/08/30 00:39:11;;;;;;;9.48;7.50;;;;;;;26.00;52.16;95104.66;4920959;28;20101;-62
2022/08/30 00:41:36;;;;;;;8.73;7.47;;;;;;;26.08;52.16;95110.97;4929541;28;20048;-61
2022/08/30 00:44:02;;;;;;;9.30;7.10;;;;;;;25.55;51.87;95036.78;4920914;28;20125;-61
2022/08/30 00:46:28;;;;;;;10.45;7.47;;;;;;;26.04;51.86;95110.56;4920259;28;20707;-61
2022/08/30 00:48:54;;;;;;;10.00;7.38;;;;;;;25.53;51.84;95028.34;4920635;28;20725;-61
2022/08/30 00:51:20;;;;;;;8.88;7.68;;;;;;;25.96;51.94;95098.00;4984397;28;20073;-61
2022/08/30 00:53:48;;;;;;;7.70;6.90;;;;;;;25.84;51.68;95092.00;4920238;28;20031;-62
2022/08/30 00:56:14;;;;;;;9.00;7.30;;;;;;;25.62;51.85;95063.50;4984496;28;20051;-61
2022/08/30 00:58:42;;;;;;;10.88;7.15;;;;;;;25.57;51.67;95039.72;4969004;28;20051;-62
2022/08/30 01:01:08;;;;;;;8.98;7.13;;;;;;;26.09;52.08;95117.19;4984858;28;20538;-61
2022/08/30 01:03:34;;;;;;;8.48;6.93;;;;;;;26.07;51.78;95136.13;4887054;28;20109;-61
2022/08/30 01:06:00;;;;;;;9.25;7.28;;;;;;;25.99;51.72;95127.81;4984697;28;20051;-62
2022/08/30 01:08:26;;;;;;;9.82;7.15;;;;;;;25.92;51.68;95109.28;4982363;28;20048;-62
2022/08/30 01:10:51;;;;;;;8.60;7.13;;;;;;;26.00;51.79;95104.66;4982039;28;20461;-62
2022/08/30 01:13:17;;;;;;;10.95;7.75;;;;;;;25.31;51.89;95018.53;4913013;28;20105;-63
2022/08/30 01:15:43;;;;;;;9.20;7.30;;;;;;;24.97;51.85;94962.16;4955360;28;20027;-62
2022/08/30 01:18:10;;;;;;;9.60;7.70;;;;;;;26.03;51.85;95111.81;4910223;28;20075;-62
2022/08/30 01:21:16;;;;;;;9.52;7.82;;;;;;;26.01;51.74;95103.41;4918328;28;20138;-63
2022/08/30 01:23:42;;;;;;;8.50;6.72;;;;;;;25.85;51.95;95082.53;4912578;28;20040;-62
2022/08/30 01:26:09;;;;;;;8.65;7.18;;;;;;;25.85;51.81;95107.16;4981372;28;20047;-64
2022/08/30 01:28:35;;;;;;;9.15;7.50;;;;;;;26.00;51.84;95104.66;4913465;28;20040;-65
2022/08/30 01:31:00;;;;;;;8.85;7.03;;;;;;;25.99;51.73;95107.91;4984920;28;20117;-65
2022/08/30 01:33:26;;;;;;;9.23;7.65;;;;;;;26.02;51.69;95107.63;4929864;28;20669;-65
2022/08/30 01:35:53;;;;;;;9.15;7.10;;;;;;;26.04;51.73;95109.81;4981770;28;20040;-66
2022/08/30 01:38:21;;;;;;;10.38;7.25;;;;;;;26.02;51.84;95106.84;4996559;28;20046;-67
2022/08/30 01:40:47;;;;;;;8.35;7.05;;;;;;;25.87;52.28;95098.41;4983688;28;20048;-65
2022/08/30 01:43:13;;;;;;;9.63;7.45;;;;;;;25.97;52.20;95121.38;4984107;28;20120;-62
2022/08/30 01:45:38;;;;;;;8.55;6.70;;;;;;;25.97;52.07;95116.63;4987849;28;20761;-65
2022/08/30 01:48:04;;;;;;;7.80;6.93;;;;;;;25.97;51.82;95110.44;4918933;28;20043;-63
2022/08/30 01:50:29;;;;;;;8.00;6.97;;;;;;;25.94;51.99;95109.47;4919533;28;20101;-64
2022/08/30 01:52:55;;;;;;;7.78;7.00;;;;;;;25.94;51.88;95104.00;4918462;28;20126;-66
2022/08/30 01:55:20;;;;;;;10.57;7.40;;;;;;;25.96;51.81;95103.47;4919398;28;20466;-64
2022/08/30 01:57:46;;;;;;;8.10;7.20;;;;;;;25.95;52.01;95097.28;4926584;28;20461;-65
2022/08/30 02:00:12;;;;;;;8.60;7.13;;;;;;;25.95;51.97;95100.00;4922419;28;20090;-63
2022/08/30 02:02:38;;;;;;;8.93;6.97;;;;;;;25.95;51.66;95091.81;4972857;28;20558;-64
2022/08/30 02:05:04;;;;;;;8.38;7.38;;;;;;;25.97;52.09;95094.75;4919737;28;20040;-63
2022/08/30 02:07:30;;;;;;;8.90;7.00;;;;;;;25.97;51.63;95100.22;4918624;28;20035;-64
2022/08/30 02:09:56;;;;;;;8.65;7.00;;;;;;;25.98;51.61;95090.03;4919270;28;20028;-64
2022/08/30 02:12:21;;;;;;;10.55;7.22;;;;;;;25.94;52.04;95090.31;4914255;28;20032;-64
2022/08/30 02:14:47;;;;;;;8.38;7.00;;;;;;;25.94;51.85;95095.06;4919440;28;20047;-64
2022/08/30 02:17:13;;;;;;;8.27;6.95;;;;;;;25.92;51.88;95090.13;4922031;28;20426;-66
2022/08/30 02:19:38;;;;;;;8.13;7.32;;;;;;;25.92;51.93;95081.91;4926030;28;20044;-64
2022/08/30 02:22:04;;;;;;;8.13;7.30;;;;;;;25.82;52.01;95072.63;4934305;28;20129;-63
2022/08/30 02:24:30;;;;;;;8.05;7.25;;;;;;;25.93;51.62;95083.38;4916646;28;20098;-62
2022/08/30 02:26:56;;;;;;;7.93;6.90;;;;;;;25.92;51.67;95084.63;4924177;28;20044;-63
2022/08/30 02:29:21;;;;;;;9.02;7.65;;;;;;;25.89;51.83;95088.44;4922693;28;20036;-64
2022/08/30 02:34:24;;;;;;;7.47;6.68;;;;;;;25.89;51.87;95099.38;4911407;28;20114;-63
2022/08/30 02:36:50;;;;;;;9.77;6.80;;;;;;;25.89;51.88;95099.38;4915252;28;20040;-62
2022/08/30 02:39:15;;;;;;;8.48;6.90;;;;;;;25.89;51.87;95093.91;4915259;28;20040;-63
2022/08/30 02:41:41;;;;;;;8.07;6.88;;;;;;;25.33;51.54;95005.09;4913780;28;20032;-62
2022/08/30 02:44:06;;;;;;;9.88;6.93;;;;;;;25.89;51.73;95082.94;4914862;28;20044;-62
2022/08/30 02:46:32;;;;;;;9.40;7.50;;;;;;;25.90;51.73;95084.44;4918185;28;20750;-63
2022/08/30 02:48:57;;;;;;;7.75;6.88;;;;;;;25.72;51.89;95059.13;4916676;28;20166;-62
2022/08/30 02:51:23;;;;;;;8.20;6.93;;;;;;;25.79;51.76;95073.66;4917006;28;20079;-61
2022/08/30 02:53:48;;;;;;;8.35;6.70;;;;;;;25.81;51.51;95073.91;4923668;28;20113;-61
2022/08/30 02:56:14;;;;;;;10.35;7.13;;;;;;;25.90;51.38;95078.97;4919664;28;20585;-61
2022/08/30 02:58:41;;;;;;;10.13;7.55;;;;;;;25.71;51.57;95049.44;4920856;28;20047;-61
2022/08/30 03:01:08;;;;;;;9.02;7.18;;;;;;;25.85;51.84;95088.00;4914640;28;20036;-62
2022/08/30 03:03:33;;;;;;;8.10;7.22;;;;;;;25.70;51.62;95058.94;4915424;28;20035;-62
2022/08/30 03:05:59;;;;;;;8.05;6.95;;;;;;;25.88;51.74;95084.22;4978903;28;20055;-61
2022/08/30 03:08:25;;;;;;;9.68;7.43;;;;;;;25.60;51.64;95044.16;4915781;28;20040;-61
2022/08/30 03:10:50;;;;;;;7.85;6.90;;;;;;;25.40;52.20;95025.59;4977602;28;20220;-62
2022/08/30 03:13:16;;;;;;;8.95;7.15;;;;;;;25.25;51.76;94992.53;4917755;28;20074;-61
2022/08/30 03:15:41;;;;;;;10.63;7.03;;;;;;;25.78;51.83;95087.13;4915860;28;20058;-62
2022/08/30 03:18:07;;;;;;;7.93;7.03;;;;;;;25.78;51.79;95087.13;4911917;28;20151;-61
2022/08/30 03:20:34;;;;;;;10.68;7.65;;;;;;;25.70;51.61;95075.34;4912652;28;20091;-62
2022/08/30 03:22:59;;;;;;;8.27;6.85;;;;;;;25.68;51.79;95066.91;4983376;28;20151;-61
2022/08/30 03:25:25;;;;;;;8.00;6.80;;;;;;;25.56;51.84;95049.19;4914966;28;20130;-61
2022/08/30 03:27:51;;;;;;;7.70;6.93;;;;;;;25.68;51.75;95072.38;4913248;28;20498;-61
2022/08/30 03:30:17;;;;;;;7.93;7.13;;;;;;;25.86;51.66;95102.44;4908036;28;20684;-61
2022/08/30 03:32:43;;;;;;;7.80;6.55;;;;;;;25.81;51.60;95097.75;4977326;28;20062;-61
2022/08/30 03:35:09;;;;;;;9.57;6.90;;;;;;;25.78;51.81;95098.81;4917270;28;20075;-61
2022/08/30 03:37:35;;;;;;;8.85;7.93;;;;;;;25.55;51.73;95064.13;4929209;28;20040;-63
2022/08/30 03:40:02;;;;;;;7.90;7.10;;;;;;;25.81;51.68;95104.00;4914184;28;20023;-64
2022/08/30 03:42:27;;;;;;;7.60;6.55;;;;;;;25.72;51.65;95094.69;4916076;28;20048;-63
2022/08/30 03:44:53;;;;;;;7.82;7.07;;;;;;;25.77;51.89;95091.88;4914240;28;20066;-63
2022/08/30 03:47:19;;;;;;;8.35;6.88;;;;;;;25.70;51.53;95080.81;4915944;28;20048;-64
2022/08/30 03:49:45;;;;;;;8.55;7.10;;;;;;;25.73;51.45;95101.66;4918006;28;20032;-63
2022/08/30 03:52:10;;;;;;;9.18;7.45;;;;;;;25.20;51.54;95017.97;4917026;28;20047;-61
2022/08/30 03:54:37;;;;;;;8.77;7.28;;;;;;;25.81;51.92;95109.47;4934959;23;20046;-67
2022/08/30 03:57:03;;;;;;;10.07;6.93;;;;;;;25.82;51.88;95110.94;4916874;28;20074;-66
2022/08/30 03:59:28;;;;;;;8.77;6.95;;;;;;;25.79;51.73;95105.03;4917174;28;20557;-64
2022/08/30 04:01:54;;;;;;;9.80;7.05;;;;;;;25.81;51.65;95098.53;4913261;28;20535;-64
2022/08/30 04:04:19;;;;;;;7.90;7.10;;;;;;;25.77;51.78;95096.59;4920472;28;20477;-66
2022/08/30 04:06:45;;;;;;;8.32;7.20;;;;;;;25.81;51.86;95103.25;4917969;28;20022;-64
2022/08/30 04:09:10;;;;;;;7.82;6.97;;;;;;;25.81;51.96;95109.47;4914300;28;20036;-64
2022/08/30 04:11:36;;;;;;;9.77;7.10;;;;;;;25.79;51.46;95108.50;4919049;28;20040;-67
2022/08/30 04:14:02;;;;;;;8.80;7.20;;;;;;;25.80;51.70;95102.50;4914473;29;20094;-65
2022/08/30 04:16:28;;;;;;;9.93;7.20;;;;;;;25.79;51.72;95110.50;4916833;28;20074;-66
2022/08/30 04:18:53;;;;;;;9.27;7.63;;;;;;;25.80;51.75;95110.72;4910379;28;20028;-63
2022/08/30 04:21:19;;;;;;;9.07;7.38;;;;;;;25.78;51.83;95109.03;4921626;28;20069;-65
2022/08/30 04:23:46;;;;;;;8.20;7.15;;;;;;;25.80;51.79;95113.44;4930072;28;20035;-64
2022/08/30 04:26:11;;;;;;;8.20;7.13;;;;;;;25.82;51.67;95110.19;4917791;28;20091;-63
2022/08/30 04:28:37;;;;;;;9.25;7.20;;;;;;;25.72;52.05;95100.16;4917703;28;20035;-63
2022/08/30 04:31:13;;;;;;;8.93;7.70;;;;;;;25.79;51.66;95115.97;4905871;29;20044;-67
2022/08/30 04:33:39;;;;;;;8.45;7.28;;;;;;;25.79;51.87;95121.47;4922178;28;20059;-65
2022/08/30 04:36:05;;;;;;;8.82;6.82;;;;;;;25.79;51.97;95117.44;4922134;28;20507;-65
2022/08/30 04:38:31;;;;;;;8.52;7.45;;;;;;;25.81;52.08;95119.66;4922445;28;20039;-66
2022/08/30 04:40:57;;;;;;;8.30;7.43;;;;;;;25.72;51.91;95105.66;4924620;28;20055;-67
2022/08/30 04:43:25;;;;;;;8.93;7.57;;;;;;;25.77;52.10;95118.47;4921976;28;20031;-64
2022/08/30 04:45:52;;;;;;;8.25;7.03;;;;;;;25.80;52.14;95123.66;4922811;29;20038;-64
2022/08/30 04:48:46;;;;;;;9.23;7.97;;;;;;;25.75;52.25;95129.22;4923135;28;20040;-64
2022/08/30 04:52:05;;;;;;;9.02;7.85;;;;;;;25.79;52.30;95137.88;4950497;28;20040;-64
2022/08/30 04:54:42;;;;;;;10.30;8.07;;;;;;;25.79;52.10;95126.94;4918242;28;20036;-63
2022/08/30 04:57:08;;;;;;;8.63;7.32;;;;;;;25.81;52.11;95136.81;5207101;23;20053;-64
2022/08/30 04:59:34;;;;;;;9.35;7.05;;;;;;;25.79;52.33;95138.59;5005119;28;20045;-63
2022/08/30 05:01:59;;;;;;;8.10;7.25;;;;;;;25.80;52.29;95140.81;5026316;28;20025;-63
2022/08/30 05:04:25;;;;;;;9.20;7.47;;;;;;;25.72;52.28;95130.25;5017880;28;20047;-63
2022/08/30 05:06:51;;;;;;;9.75;7.63;;;;;;;25.77;52.36;95141.13;5023902;28;20395;-63
2022/08/30 05:09:17;;;;;;;9.43;7.85;;;;;;;25.83;52.41;95145.25;5041175;28;20037;-62
2022/08/30 05:11:44;;;;;;;8.85;7.75;;;;;;;25.83;52.57;95145.25;5040299;28;20028;-63
2022/08/30 05:14:10;;;;;;;10.45;8.05;;;;;;;25.81;52.39;95152.47;5024136;28;20149;-64
2022/08/30 05:16:35;;;;;;;10.77;7.85;;;;;;;25.79;52.58;95150.28;5011393;28;20240;-63
2022/08/30 05:19:01;;;;;;;10.43;7.68;;;;;;;25.79;52.48;95144.81;5041608;28;20515;-64
2022/08/30 05:21:27;;;;;;;10.10;8.50;;;;;;;25.78;52.53;95150.06;5042228;28;20439;-62
2022/08/30 05:23:53;;;;;;;9.90;7.72;;;;;;;25.82;52.46;95154.69;5042004;28;20036;-64
2022/08/30 05:26:21;;;;;;;11.40;8.02;;;;;;;25.78;52.44;95147.31;5042961;28;20120;-64
2022/08/30 05:28:47;;;;;;;9.15;7.50;;;;;;;25.82;52.83;95171.13;5038162;28;20028;-62
2022/08/30 05:31:17;;;;;;;8.95;8.05;;;;;;;25.10;53.70;95051.69;5051839;28;20045;-63
2022/08/30 05:33:43;;;;;;;10.15;7.32;;;;;;;25.70;53.98;95146.47;5052061;28;20567;-63
2022/08/30 05:36:09;;;;;;;10.30;7.55;;;;;;;25.79;53.51;95169.41;5042783;28;20242;-63
2022/08/30 05:38:35;;;;;;;8.55;7.65;;;;;;;25.71;53.64;95158.88;5042155;28;20029;-63
2022/08/30 05:41:00;;;;;;;9.52;7.65;;;;;;;25.03;55.14;95063.19;5023285;28;20032;-65
2022/08/30 05:43:26;;;;;;;10.82;7.60;;;;;;;25.78;54.55;95164.47;5040582;28;20068;-62
2022/08/30 05:46:02;;;;;;;10.23;7.88;;;;;;;25.23;53.40;95082.53;5017076;28;20029;-69
2022/08/30 05:48:28;;;;;;;11.07;8.48;;;;;;;25.29;53.49;95075.00;5023172;28;20017;-63
2022/08/30 05:51:06;;;;;;;12.13;8.43;;;;;;;25.81;53.90;95158.72;5042332;28;20021;-62
2022/08/30 05:53:32;;;;;;;11.05;7.63;;;;;;;25.51;53.84;95110.91;5042710;28;20040;-64
2022/08/30 05:56:00;;;;;;;9.77;7.90;;;;;;;25.83;54.17;95150.72;5042349;28;20025;-63
2022/08/30 05:58:25;;;;;;;10.35;7.65;;;;;;;25.68;54.38;95133.31;5037219;28;20071;-64
2022/08/30 06:00:51;;;;;;;9.32;8.00;;;;;;;25.15;54.69;95054.31;5040859;28;20025;-64
2022/08/30 06:03:16;;;;;;;9.98;7.70;;;;;;;25.85;54.43;95159.13;5036755;28;20610;-65
2022/08/30 06:05:42;;;;;;;10.32;8.35;;;;;;;25.18;54.37;95053.28;5042035;28;20040;-66
2022/08/30 06:08:07;;;;;;;9.50;8.32;;;;;;;25.85;54.39;95148.19;5039465;28;20017;-64
2022/08/30 06:10:33;;;;;;;10.45;8.10;;;;;;;25.21;54.35;95063.16;5036032;28;20135;-66
2022/08/30 06:12:58;;;;;;;9.30;7.80;;;;;;;25.18;54.28;95052.53;5041554;28;20052;-63
2022/08/30 06:15:24;;;;;;;12.00;8.60;;;;;;;25.86;54.24;95146.94;5043254;28;20091;-64
2022/08/30 06:17:49;;;;;;;12.15;8.60;;;;;;;25.67;54.64;95125.63;5041158;28;20178;-65
2022/08/30 06:20:17;;;;;;;10.85;8.82;;;;;;;25.81;nan;95149.75;5041187;28;20033;-66
2022/08/30 06:22:43;;;;;;;10.75;8.05;;;;;;;25.86;54.44;95171.56;5040912;28;20104;-66
2022/08/30 06:25:09;;;;;;;10.35;8.38;;;;;;;25.47;54.22;95101.53;5011313;28;20084;-65
2022/08/30 06:27:34;;;;;;;10.88;8.65;;;;;;;25.22;54.21;95069.38;5039237;28;20025;-64
2022/08/30 06:30:00;;;;;;;11.70;8.88;;;;;;;25.73;54.48;95156.38;5042925;28;20025;-63
2022/08/30 06:32:25;;;;;;;9.38;8.38;;;;;;;25.27;54.58;95085.69;5016350;28;20370;-65
2022/08/30 06:34:51;;;;;;;11.00;8.60;;;;;;;25.59;54.48;95132.91;5042457;28;20029;-66
2022/08/30 06:37:16;;;;;;;9.52;8.50;;;;;;;25.57;54.42;95138.19;5039978;28;20557;-66
2022/08/30 06:39:42;;;;;;;11.20;8.13;;;;;;;25.50;54.35;95122.38;5040651;28;20025;-65
2022/08/30 06:42:08;;;;;;;9.18;8.15;;;;;;;25.91;54.54;95178.94;5040213;28;20033;-64
2022/08/30 06:44:33;;;;;;;12.30;9.10;;;;;;;25.93;54.09;95181.91;5041811;28;20040;-64
2022/08/30 06:46:59;;;;;;;10.85;8.43;;;;;;;25.90;54.17;95177.47;5040948;28;20032;-64
2022/08/30 06:49:24;;;;;;;9.90;8.18;;;;;;;25.38;54.08;95099.94;5041865;28;20036;-64
2022/08/30 06:51:50;;;;;;;13.32;8.18;;;;;;;25.98;54.47;95191.28;5039905;28;20032;-67
2022/08/30 06:54:15;;;;;;;10.73;8.27;;;;;;;25.88;54.39;95179.97;5022668;28;20029;-65
2022/08/30 06:56:41;;;;;;;10.68;9.15;;;;;;;26.00;54.46;95196.97;5039259;28;20060;-64
2022/08/30 06:59:06;;;;;;;9.95;7.93;;;;;;;26.01;54.27;95193.72;5014012;28;20049;-62
2022/08/30 07:01:32;;;;;;;9.65;8.57;;;;;;;25.92;54.33;95180.41;5039342;28;20099;-64
2022/08/30 07:03:58;;;;;;;9.48;8.48;;;;;;;25.99;54.62;95190.75;5043155;28;20414;-65
2022/08/30 07:06:23;;;;;;;10.52;8.40;;;;;;;25.86;54.65;95179.78;5043608;28;20025;-65
2022/08/30 07:08:49;;;;;;;11.80;8.52;;;;;;;24.76;54.48;95033.50;5038578;28;20028;-63
2022/08/30 07:11:25;;;;;;;10.15;8.07;;;;;;;25.70;54.46;95146.47;5043168;28;20056;-64
2022/08/30 07:13:52;;;;;;;12.52;8.02;;;;;;;25.91;54.36;95184.41;5027407;28;20075;-64
2022/08/30 07:16:18;;;;;;;10.60;8.40;;;;;;;25.92;54.32;95188.63;5041540;28;20033;-63
2022/08/30 07:18:49;;;;;;;12.27;8.85;;;;;;;25.90;54.35;95185.69;5042997;28;20059;-65
2022/08/30 07:21:17;;;;;;;9.55;8.30;;;;;;;25.56;54.00;95131.22;5044488;28;20027;-65
2022/08/30 07:23:43;;;;;;;9.63;8.25;;;;;;;26.02;54.34;95197.94;5030043;28;20044;-66
2022/08/30 07:26:10;;;;;;;10.48;7.95;;;;;;;26.05;54.14;95205.09;5042929;28;20053;-66
2022/08/30 07:28:37;;;;;;;9.23;8.32;;;;;;;25.51;54.22;95123.84;5043493;28;20020;-63
2022/08/30 07:31:02;;;;;;;12.52;8.23;;;;;;;25.97;54.26;95185.06;5024168;28;20029;-64
2022/08/30 07:33:28;;;;;;;9.52;7.75;;;;;;;26.10;54.14;95200.78;5043155;28;20415;-64
2022/08/30 07:35:53;;;;;;;11.20;8.35;;;;;;;25.65;54.37;95155.47;5043410;28;20072;-65
2022/08/30 07:38:19;;;;;;;12.70;8.40;;;;;;;25.38;54.11;95093.72;5043163;28;20020;-65
2022/08/30 07:40:44;;;;;;;14.48;8.43;;;;;;;25.41;53.95;95098.13;5043462;28;20036;-66
2022/08/30 07:43:10;;;;;;;11.15;8.52;;;;;;;25.96;54.39;95186.34;5043167;28;20044;-65
2022/08/30 07:46:04;;;;;;;10.07;7.57;;;;;;;26.07;54.55;95197.09;5042810;28;20088;-64
2022/08/30 07:48:30;;;;;;;10.48;8.32;;;;;;;26.02;54.35;95189.72;5028659;28;20126;-63
2022/08/30 07:50:55;;;;;;;10.07;8.07;;;;;;;25.61;54.36;95131.16;5036703;28;20067;-63
2022/08/30 07:53:21;;;;;;;12.90;8.55;;;;;;;25.90;54.01;95174.75;5039063;28;20095;-63
2022/08/30 07:55:46;;;;;;;10.57;8.50;;;;;;;25.76;54.64;95166.28;5040453;28;20032;-63
2022/08/30 07:58:12;;;;;;;11.13;8.32;;;;;;;26.09;54.54;95211.00;5041796;28;20053;-63
2022/08/30 08:00:37;;;;;;;9.52;8.45;;;;;;;26.01;54.60;95190.97;5025124;28;20033;-63
2022/08/30 08:03:06;;;;;;;10.05;8.18;;;;;;;25.77;54.34;95167.72;5038660;28;20528;-63
2022/08/30 08:08:13;;;;;;;10.07;7.65;;;;;;;26.12;54.48;95209.94;5000731;28;20061;-65
2022/08/30 08:10:39;;;;;;;9.43;8.43;;;;;;;26.18;54.32;95216.06;5003841;28;20077;-66
2022/08/30 08:13:05;;;;;;;11.23;8.38;;;;;;;26.20;54.28;95216.28;4991673;28;20037;-65
2022/08/30 08:15:31;;;;;;;10.70;9.02;;;;;;;26.20;54.13;95210.78;4976548;28;20023;-66
2022/08/30 08:17:56;;;;;;;10.20;8.45;;;;;;;26.18;54.52;95218.81;5013549;28;20060;-63
2022/08/30 08:20:22;;;;;;;9.65;8.00;;;;;;;26.15;54.97;95222.59;5017662;28;20038;-63
2022/08/30 08:22:47;;;;;;;9.55;8.10;;;;;;;26.15;54.65;95219.84;5016968;28;20114;-63
2022/08/30 08:25:13;;;;;;;10.63;8.65;;;;;;;26.20;54.14;95216.28;5017170;28;20080;-63
2022/08/30 08:27:39;;;;;;;10.45;8.60;;;;;;;26.22;54.37;95224.72;4974901;28;20038;-63
2022/08/30 08:30:07;;;;;;;10.00;8.50;;;;;;;26.22;54.57;95221.22;5016966;28;20068;-64
2022/08/30 08:32:33;;;;;;;10.90;9.00;;;;;;;26.22;54.37;95213.78;5016157;28;20107;-62
2022/08/30 08:34:58;;;;;;;10.95;8.23;;;;;;;26.25;54.32;95215.47;4997942;28;20113;-64
2022/08/30 08:37:26;;;;;;;8.95;7.90;;;;;;;26.20;54.53;95210.78;5006691;28;20089;-66
2022/08/30 08:39:52;;;;;;;13.05;8.43;;;;;;;26.23;54.15;95204.28;4994651;28;20029;-66
2022/08/30 08:42:26;;;;;;;9.88;8.48;;;;;;;26.21;54.61;95201.34;5015428;28;20024;-63
2022/08/30 08:45:08;;;;;;;9.73;8.43;;;;;;;26.25;54.58;95204.50;4998478;28;20031;-64
2022/08/30 08:47:46;;;;;;;9.52;7.88;;;;;;;26.21;54.36;95200.59;4999445;28;20535;-62
2022/08/30 08:50:13;;;;;;;11.50;8.20;;;;;;;25.40;54.62;95080.28;5017991;28;20661;-62
2022/08/30 08:55:44;;;;;;;9.38;7.80;;;;;;;26.08;54.50;95178.66;4989388;28;20032;-64
2022/08/30 08:58:29;;;;;;;11.50;7.93;;;;;;;26.22;54.20;95202.81;5019103;28;20033;-62
2022/08/30 09:00:59;;;;;;;10.68;8.57;;;;;;;25.82;54.07;95153.97;5009575;28;20033;-60
2022/08/30 09:03:27;;;;;;;9.90;8.18;;;;;;;26.27;53.86;95210.19;5009113;28;20029;-66
2022/08/30 09:05:53;;;;;;;10.00;8.00;;;;;;;25.83;53.94;95134.28;5000711;28;20477;-62
2022/08/30 09:08:19;;;;;;;10.43;8.00;;;;;;;26.01;53.74;95171.81;5007920;28;20071;-64
2022/08/30 09:11:01;;;;;;;9.65;7.82;;;;;;;26.23;53.96;95192.59;5016884;28;20803;-64
2022/08/30 09:13:27;;;;;;;12.93;7.82;;;;;;;25.82;53.81;95119.13;5019502;28;20029;-63
2022/08/30 09:15:54;;;;;;;9.73;8.73;;;;;;;25.80;54.17;95129.88;5017397;28;20778;-63
2022/08/30 09:18:38;;;;;;;8.95;7.93;;;;;;;26.18;53.87;95175.00;5014835;28;20025;-63
2022/08/30 09:21:12;;;;;;;10.18;8.85;;;;;;;26.12;53.75;95168.88;4984862;28;20031;-62
2022/08/30 09:23:49;;;;;;;12.82;8.88;;;;;;;26.23;53.82;95187.84;4999974;28;20737;-63
2022/08/30 09:26:14;;;;;;;10.38;8.55;;;;;;;26.41;54.33;95215.22;5015542;28;20072;-63
2022/08/30 09:28:46;;;;;;;10.20;8.63;;;;;;;26.46;54.30;95205.44;4982760;28;20479;-63
2022/08/30 09:31:25;;;;;;;9.50;8.35;;;;;;;26.47;53.99;95206.88;4981679;28;20033;-63
2022/08/30 09:34:21;;;;;;;10.43;8.15;;;;;;;26.48;53.85;95208.38;4999217;28;20559;-62
2022/08/30 09:36:50;;;;;;;11.93;8.73;;;;;;;26.47;53.97;95206.88;5015025;28;20103;-64
2022/08/30 09:39:17;;;;;;;10.52;8.68;;;;;;;26.48;53.84;95208.38;5003079;28;20032;-63
2022/08/30 09:41:45;;;;;;;11.60;9.18;;;;;;;26.48;53.83;95202.88;5015230;28;20100;-63
2022/08/30 09:44:23;;;;;;;10.82;9.15;;;;;;;26.53;54.06;95213.75;5017323;28;20026;-63
2022/08/30 09:46:49;;;;;;;14.75;9.52;;;;;;;26.53;53.73;95199.31;4998935;28;20013;-63
2022/08/30 09:49:40;;;;;;;9.93;8.70;;;;;;;26.56;53.78;95203.72;4998778;28;20029;-63
2022/08/30 09:52:23;;;;;;;10.57;9.05;;;;;;;26.56;53.68;95192.78;5018117;28;20033;-63
2022/08/30 09:54:49;;;;;;;11.77;8.75;;;;;;;26.57;53.75;95197.00;5013794;28;20041;-63
2022/08/30 09:57:35;;;;;;;9.88;8.80;;;;;;;26.58;54.17;95190.25;5017695;28;20039;-63
2022/08/30 10:00:06;;;;;;;10.40;9.30;;;;;;;26.52;54.10;95186.88;5015521;28;20032;-63
2022/08/30 10:02:49;;;;;;;12.30;8.57;;;;;;;26.62;53.76;95185.19;4991065;28;20026;-64
2022/08/30 10:05:21;;;;;;;11.73;8.93;;;;;;;26.62;53.47;95180.47;5003134;28;20091;-63
2022/08/30 10:07:55;;;;;;;11.10;8.27;;;;;;;26.66;53.38;95174.66;5005059;28;20050;-64
2022/08/30 10:10:30;;;;;;;12.02;8.70;;;;;;;26.68;53.68;95177.59;5002853;28;20088;-63
2022/08/30 10:13:01;;;;;;;10.80;8.35;;;;;;;26.71;53.28;95176.56;5007065;28;20045;-63
2022/08/30 10:15:54;;;;;;;11.32;8.48;;;;;;;26.72;53.57;95173.28;5002486;28;20416;-63
2022/08/30 10:18:28;;;;;;;9.75;8.25;;;;;;;26.73;53.75;95165.81;4988230;28;20041;-63
2022/08/30 10:21:24;;;;;;;10.70;8.52;;;;;;;26.03;53.31;95059.81;5000894;28;20527;-62
2022/08/30 10:23:56;;;;;;;11.25;9.00;;;;;;;26.76;53.34;95166.22;4989939;28;20775;-63
2022/08/30 10:26:32;;;;;;;12.50;8.57;;;;;;;26.78;53.02;95160.22;5003338;28;20026;-63
2022/08/30 10:29:11;;;;;;;11.38;8.82;;;;;;;26.79;53.41;95156.94;4987874;28;20035;-63
2022/08/30 10:31:45;;;;;;;13.15;8.90;;;;;;;26.82;53.25;95155.88;5000798;28;20865;-63
2022/08/30 10:34:48;;;;;;;12.73;9.20;;;;;;;26.83;53.26;95157.38;5007294;28;20420;-63
2022/08/30 10:37:20;;;;;;;12.13;8.98;;;;;;;26.34;52.87;95075.44;4981654;28;20037;-63
2022/08/30 10:39:58;;;;;;;11.43;8.90;;;;;;;26.81;53.14;95140.69;5007270;28;20085;-62
2022/08/30 10:42:30;;;;;;;12.98;9.30;;;;;;;26.93;52.84;95144.72;4960327;28;20032;-63
2022/08/30 10:45:09;;;;;;;10.90;8.80;;;;;;;26.93;53.19;95150.22;4989813;28;20057;-64
2022/08/30 10:47:55;;;;;;;11.07;8.63;;;;;;;26.99;52.68;95148.09;5005445;28;20090;-63
2022/08/30 10:50:27;;;;;;;10.75;8.68;;;;;;;26.85;52.50;95121.94;4991914;28;20242;-63
2022/08/30 10:53:17;;;;;;;9.85;7.93;;;;;;;27.01;52.49;95140.09;5019953;28;20056;-63
2022/08/30 10:56:04;;;;;;;10.60;8.20;;;;;;;26.97;52.58;95128.69;5019727;28;20029;-63
2022/08/30 10:58:30;;;;;;;9.05;7.47;;;;;;;27.05;52.47;95128.78;5011478;28;20029;-62
2022/08/30 11:01:32;;;;;;;10.95;7.72;;;;;;;27.08;52.14;95133.94;5020482;28;20064;-63
2022/08/30 11:04:05;;;;;;;9.55;7.93;;;;;;;26.68;52.04;95062.53;5013395;28;20078;-63
2022/08/30 11:06:42;;;;;;;11.20;7.75;;;;;;;26.98;52.22;95108.25;5001966;28;20041;-63
2022/08/30 11:09:21;;;;;;;10.00;7.53;;;;;;;27.14;51.71;95122.88;5022756;28;20535;-63
2022/08/30 11:11:49;;;;;;;9.32;6.68;;;;;;;27.11;51.93;95116.44;5008870;28;20017;-63
2022/08/30 11:14:16;;;;;;;8.40;7.53;;;;;;;27.13;51.79;95113.91;5006473;28;20044;-64
2022/08/30 11:16:44;;;;;;;9.88;7.78;;;;;;;27.09;51.58;95113.50;5004757;28;20036;-64
2022/08/30 11:19:34;;;;;;;9.55;7.65;;;;;;;27.14;51.49;95109.88;5002997;28;20548;-63
2022/08/30 11:22:14;;;;;;;9.15;6.90;;;;;;;27.05;51.37;95096.63;4996962;28;20040;-64
2022/08/30 11:25:01;;;;;;;8.57;7.10;;;;;;;27.13;51.43;95102.94;5020738;28;20025;-64
2022/08/30 11:27:50;;;;;;;8.48;7.20;;;;;;;27.14;51.59;95107.16;5021311;28;20101;-63
2022/08/30 11:30:24;;;;;;;9.13;7.03;;;;;;;27.14;51.77;95098.91;4986249;28;20057;-64
2022/08/30 11:33:03;;;;;;;9.50;7.35;;;;;;;27.12;51.86;95100.75;5018755;28;20029;-65
2022/08/30 11:35:56;;;;;;;9.70;7.63;;;;;;;27.14;51.88;95103.69;5020049;28;20442;-65
2022/08/30 11:38:24;;;;;;;9.18;7.60;;;;;;;27.14;51.81;95093.44;5017475;28;20108;-64
2022/08/30 11:40:57;;;;;;;7.88;7.07;;;;;;;27.14;51.24;95106.41;5021130;28;20561;-62
2022/08/30 11:43:38;;;;;;;8.65;7.22;;;;;;;27.17;51.20;95106.09;5023612;28;20033;-64
2022/08/30 11:46:13;;;;;;;9.80;7.68;;;;;;;27.18;51.20;95099.34;5023779;28;20084;-64
2022/08/30 11:48:47;;;;;;;8.93;7.28;;;;;;;27.19;51.39;95105.56;5023659;28;20056;-63